createdAt,value
2023-02-03T00:00:59.657Z,0
2023-02-03T00:01:59.934Z,0
2023-02-03T00:02:59.631Z,0
2023-02-03T00:03:59.579Z,0
2023-02-03T00:04:59.540Z,0
2023-02-03T00:05:59.532Z,0
2023-02-03T00:06:59.529Z,0
2023-02-03T00:07:59.450Z,0
2023-02-03T00:08:59.485Z,0
2023-02-03T00:09:59.434Z,0
2023-02-03T00:10:59.529Z,0
2023-02-03T00:11:59.358Z,0
2023-02-03T00:12:59.437Z,0
2023-02-03T00:13:59.320Z,0
2023-02-03T00:14:59.277Z,0
2023-02-03T00:15:59.454Z,0
2023-02-03T00:16:59.189Z,0
2023-02-03T00:17:58.912Z,0
2023-02-03T00:18:59.133Z,0
2023-02-03T00:19:59.090Z,0
2023-02-03T00:20:58.838Z,0
2023-02-03T00:21:59.045Z,0
2023-02-03T00:22:58.802Z,0
2023-02-03T00:23:59.001Z,0
2023-02-03T00:24:58.947Z,0
2023-02-03T00:25:58.920Z,0
2023-02-03T00:26:58.885Z,0
2023-02-03T00:27:59.230Z,0
2023-02-03T00:28:58.900Z,0
2023-02-03T00:29:58.785Z,0
2023-02-03T00:30:58.892Z,0
2023-02-03T00:31:59.654Z,0
2023-02-03T00:32:58.468Z,0
2023-02-03T00:33:58.713Z,0
2023-02-03T00:34:58.659Z,0
2023-02-03T00:35:58.635Z,0
2023-02-03T00:36:58.615Z,0
2023-02-03T00:37:58.669Z,0
2023-02-03T00:38:58.586Z,0
2023-02-03T00:39:58.564Z,0
2023-02-03T00:40:58.517Z,0
2023-02-03T00:41:58.452Z,0
2023-02-03T00:42:58.443Z,0
2023-02-03T00:43:58.455Z,0
2023-02-03T00:44:58.437Z,0
2023-02-03T00:45:58.816Z,0
2023-02-03T00:46:58.333Z,0
2023-02-03T00:47:58.294Z,0
2023-02-03T00:48:58.298Z,0
2023-02-03T00:49:58.291Z,0
2023-02-03T00:50:58.181Z,0
2023-02-03T00:51:58.163Z,0
2023-02-03T00:52:58.126Z,0
2023-02-03T00:53:58.101Z,0
2023-02-03T00:54:58.082Z,0
2023-02-03T00:55:58.027Z,0
2023-02-03T00:56:57.780Z,0
2023-02-03T00:57:58.006Z,0
2023-02-03T00:58:57.985Z,0
2023-02-03T00:59:57.971Z,0
2023-02-03T01:00:58.439Z,0
2023-02-03T01:01:58.041Z,0
2023-02-03T01:02:57.918Z,0
2023-02-03T01:03:57.810Z,0
2023-02-03T01:04:57.802Z,0
2023-02-03T01:05:57.758Z,0
2023-02-03T01:06:57.727Z,0
2023-02-03T01:07:57.686Z,0
2023-02-03T01:08:57.672Z,0
2023-02-03T01:09:57.638Z,0
2023-02-03T01:10:57.371Z,0
2023-02-03T01:11:57.580Z,0
2023-02-03T01:12:57.585Z,0
2023-02-03T01:13:57.312Z,0
2023-02-03T01:14:57.472Z,0
2023-02-03T01:15:57.526Z,0
2023-02-03T01:16:57.774Z,0
2023-02-03T01:17:57.407Z,0
2023-02-03T01:18:57.416Z,0
2023-02-03T01:19:57.332Z,0
2023-02-03T01:20:57.292Z,0
2023-02-03T01:21:57.314Z,0
2023-02-03T01:22:57.255Z,0
2023-02-03T01:23:57.295Z,0
2023-02-03T01:24:57.221Z,0
2023-02-03T01:25:56.961Z,0
2023-02-03T01:26:57.132Z,0
2023-02-03T01:27:57.407Z,0
2023-02-03T01:28:57.094Z,0
2023-02-03T01:29:57.074Z,0
2023-02-03T01:30:57.427Z,0
2023-02-03T01:31:58.063Z,0
2023-02-03T01:32:57.105Z,0
2023-02-03T01:33:56.935Z,0
2023-02-03T01:34:56.920Z,0
2023-02-03T01:35:56.907Z,0
2023-02-03T01:36:56.829Z,0
2023-02-03T01:37:56.790Z,0
2023-02-03T01:38:56.790Z,0
2023-02-03T01:39:56.869Z,0
2023-02-03T01:40:56.725Z,0
2023-02-03T01:41:56.692Z,0
2023-02-03T01:42:56.682Z,0
2023-02-03T01:43:56.633Z,0
2023-02-03T01:44:56.639Z,0
2023-02-03T01:45:56.741Z,0
2023-02-03T01:46:56.553Z,0
2023-02-03T01:47:56.537Z,0
2023-02-03T01:48:56.557Z,0
2023-02-03T01:49:56.464Z,0
2023-02-03T01:50:56.456Z,0
2023-02-03T01:51:56.410Z,0
2023-02-03T01:52:56.372Z,0
2023-02-03T01:53:56.356Z,0
2023-02-03T01:54:56.320Z,0
2023-02-03T01:55:56.271Z,0
2023-02-03T01:56:56.257Z,0
2023-02-03T01:57:56.212Z,0
2023-02-03T01:58:56.182Z,0
2023-02-03T01:59:56.164Z,0
2023-02-03T02:00:56.165Z,0
2023-02-03T02:01:56.214Z,0
2023-02-03T02:02:56.613Z,0
2023-02-03T02:03:56.064Z,0
2023-02-03T02:04:56.086Z,0
2023-02-03T02:05:55.978Z,0
2023-02-03T02:06:56.028Z,0
2023-02-03T02:07:55.926Z,0
2023-02-03T02:08:55.886Z,0
2023-02-03T02:09:55.887Z,0
2023-02-03T02:10:55.863Z,0
2023-02-03T02:11:55.796Z,0
2023-02-03T02:12:55.794Z,0
2023-02-03T02:13:55.849Z,0
2023-02-03T02:14:55.709Z,0
2023-02-03T02:15:55.967Z,0
2023-02-03T02:16:55.650Z,0
2023-02-03T02:17:55.632Z,0
2023-02-03T02:18:55.596Z,0
2023-02-03T02:19:55.601Z,0
2023-02-03T02:20:55.642Z,0
2023-02-03T02:21:55.553Z,0
2023-02-03T02:22:55.510Z,0
2023-02-03T02:23:55.460Z,0
2023-02-03T02:24:55.418Z,0
2023-02-03T02:25:55.387Z,0
2023-02-03T02:26:55.400Z,0
2023-02-03T02:27:55.783Z,0
2023-02-03T02:28:55.299Z,0
2023-02-03T02:29:55.282Z,0
2023-02-03T02:30:55.901Z,0
2023-02-03T02:31:56.078Z,0
2023-02-03T02:32:55.229Z,0
2023-02-03T02:33:55.174Z,0
2023-02-03T02:34:55.141Z,0
2023-02-03T02:35:54.869Z,0
2023-02-03T02:36:55.142Z,0
2023-02-03T02:37:55.095Z,0
2023-02-03T02:38:55.062Z,0
2023-02-03T02:39:55.062Z,0
2023-02-03T02:40:54.946Z,0
2023-02-03T02:41:54.936Z,0
2023-02-03T02:42:54.921Z,0
2023-02-03T02:43:54.886Z,0
2023-02-03T02:44:54.870Z,0
2023-02-03T02:45:54.857Z,0
2023-02-03T02:46:54.803Z,0
2023-02-03T02:47:54.729Z,0
2023-02-03T02:48:54.729Z,0
2023-02-03T02:49:54.793Z,0
2023-02-03T02:50:54.639Z,0
2023-02-03T02:51:54.669Z,0
2023-02-03T02:52:54.671Z,0
2023-02-03T02:53:54.631Z,0
2023-02-03T02:54:54.572Z,0
2023-02-03T02:55:54.538Z,0
2023-02-03T02:56:54.474Z,0
2023-02-03T02:57:54.458Z,0
2023-02-03T02:58:54.439Z,0
2023-02-03T02:59:54.405Z,0
2023-02-03T03:00:54.355Z,0
2023-02-03T03:01:54.772Z,0
2023-02-03T03:02:54.285Z,0
2023-02-03T03:03:54.280Z,0
2023-02-03T03:04:54.630Z,0
2023-02-03T03:05:54.210Z,0
2023-02-03T03:06:54.191Z,0
2023-02-03T03:07:54.156Z,0
2023-02-03T03:08:54.169Z,0
2023-02-03T03:09:54.061Z,0
2023-02-03T03:10:54.179Z,0
2023-02-03T03:11:54.014Z,0
2023-02-03T03:12:53.981Z,0
2023-02-03T03:13:53.948Z,0
2023-02-03T03:14:53.923Z,0
2023-02-03T03:15:54.170Z,0
2023-02-03T03:16:53.856Z,0
2023-02-03T03:17:53.821Z,0
2023-02-03T03:18:53.588Z,0
2023-02-03T03:19:53.788Z,0
2023-02-03T03:20:53.749Z,0
2023-02-03T03:21:53.708Z,0
2023-02-03T03:22:53.670Z,0
2023-02-03T03:23:53.658Z,0
2023-02-03T03:24:53.686Z,0
2023-02-03T03:25:53.601Z,0
2023-02-03T03:26:53.571Z,0
2023-02-03T03:27:53.767Z,0
2023-02-03T03:28:53.496Z,0
2023-02-03T03:29:53.228Z,0
2023-02-03T03:30:53.996Z,0
2023-02-03T03:31:53.930Z,0
2023-02-03T03:32:53.366Z,0
2023-02-03T03:33:53.359Z,0
2023-02-03T03:34:53.329Z,0
2023-02-03T03:35:53.270Z,0
2023-02-03T03:36:53.252Z,0
2023-02-03T03:37:53.045Z,0
2023-02-03T03:38:53.189Z,0
2023-02-03T03:39:53.186Z,0
2023-02-03T03:40:53.208Z,0
2023-02-03T03:41:53.094Z,0
2023-02-03T03:42:53.118Z,0
2023-02-03T03:43:53.044Z,0
2023-02-03T03:44:53.107Z,0
2023-02-03T03:45:52.997Z,0
2023-02-03T03:46:53.195Z,0
2023-02-03T03:47:52.914Z,0
2023-02-03T03:48:52.893Z,0
2023-02-03T03:49:52.642Z,0
2023-02-03T03:50:52.835Z,0
2023-02-03T03:51:52.591Z,0
2023-02-03T03:52:52.744Z,0
2023-02-03T03:53:52.722Z,0
2023-02-03T03:54:52.701Z,0
2023-02-03T03:55:52.723Z,0
2023-02-03T03:56:52.753Z,0
2023-02-03T03:57:52.368Z,0
2023-02-03T03:58:52.590Z,0
2023-02-03T03:59:52.311Z,0
2023-02-03T04:00:52.494Z,0
2023-02-03T04:01:53.096Z,0
2023-02-03T04:02:53.321Z,0
2023-02-03T04:03:52.405Z,0
2023-02-03T04:04:52.384Z,0
2023-02-03T04:05:52.474Z,0
2023-02-03T04:06:52.080Z,0
2023-02-03T04:07:52.292Z,0
2023-02-03T04:08:52.305Z,0
2023-02-03T04:09:52.234Z,0
2023-02-03T04:10:52.188Z,0
2023-02-03T04:11:52.217Z,0
2023-02-03T04:12:52.211Z,0
2023-02-03T04:13:52.395Z,0
2023-02-03T04:14:52.087Z,0
2023-02-03T04:15:52.361Z,0
2023-02-03T04:16:52.006Z,0
2023-02-03T04:17:51.987Z,0
2023-02-03T04:18:51.961Z,0
2023-02-03T04:19:51.923Z,0
2023-02-03T04:20:51.903Z,0
2023-02-03T04:21:51.975Z,0
2023-02-03T04:22:51.837Z,0
2023-02-03T04:23:51.883Z,0
2023-02-03T04:24:51.759Z,0
2023-02-03T04:25:51.774Z,0
2023-02-03T04:26:51.705Z,0
2023-02-03T04:27:51.828Z,0
2023-02-03T04:28:51.725Z,0
2023-02-03T04:29:51.637Z,0
2023-02-03T04:30:51.895Z,0
2023-02-03T04:31:52.118Z,0
2023-02-03T04:32:51.538Z,0
2023-02-03T04:33:51.524Z,0
2023-02-03T04:34:51.480Z,0
2023-02-03T04:35:51.422Z,0
2023-02-03T04:36:51.428Z,0
2023-02-03T04:37:51.376Z,0
2023-02-03T04:38:51.483Z,0
2023-02-03T04:39:51.400Z,0
2023-02-03T04:40:51.280Z,0
2023-02-03T04:41:51.322Z,0
2023-02-03T04:42:51.200Z,0
2023-02-03T04:43:51.205Z,0
2023-02-03T04:44:51.210Z,0
2023-02-03T04:45:51.421Z,0
2023-02-03T04:46:51.092Z,0
2023-02-03T04:47:54.016Z,0
2023-02-03T04:48:51.049Z,0
2023-02-03T04:49:50.994Z,0
2023-02-03T04:50:50.981Z,0
2023-02-03T04:51:50.941Z,0
2023-02-03T04:52:50.918Z,0
2023-02-03T04:53:50.892Z,0
2023-02-03T04:54:50.871Z,0
2023-02-03T04:55:50.565Z,0
2023-02-03T04:56:50.795Z,0
2023-02-03T04:57:50.749Z,0
2023-02-03T04:58:50.774Z,0
2023-02-03T04:59:50.751Z,0
2023-02-03T05:00:50.944Z,0
2023-02-03T05:01:50.634Z,0
2023-02-03T05:02:50.680Z,0
2023-02-03T05:03:50.759Z,0
2023-02-03T05:04:50.307Z,0
2023-02-03T05:05:50.281Z,0
2023-02-03T05:06:50.457Z,0
2023-02-03T05:07:50.487Z,0
2023-02-03T05:08:50.445Z,0
2023-02-03T05:09:50.380Z,0
2023-02-03T05:10:50.376Z,0
2023-02-03T05:11:50.314Z,0
2023-02-03T05:12:50.367Z,0
2023-02-03T05:13:50.242Z,0
2023-02-03T05:14:50.235Z,0
2023-02-03T05:15:50.236Z,0
2023-02-03T05:16:51.334Z,0
2023-02-03T05:17:50.237Z,0
2023-02-03T05:18:50.160Z,0
2023-02-03T05:19:50.082Z,0
2023-02-03T05:20:50.070Z,0
2023-02-03T05:21:49.994Z,0
2023-02-03T05:22:50.035Z,0
2023-02-03T05:23:49.928Z,0
2023-02-03T05:24:49.907Z,0
2023-02-03T05:25:49.631Z,0
2023-02-03T05:26:49.873Z,0
2023-02-03T05:27:50.087Z,0
2023-02-03T05:28:50.623Z,0
2023-02-03T05:29:49.756Z,0
2023-02-03T05:30:50.015Z,0
2023-02-03T05:31:50.154Z,0
2023-02-03T05:32:49.753Z,0
2023-02-03T05:33:49.401Z,0
2023-02-03T05:34:51.841Z,0
2023-02-03T05:35:49.574Z,0
2023-02-03T05:36:49.553Z,0
2023-02-03T05:37:49.567Z,0
2023-02-03T05:38:49.553Z,0
2023-02-03T05:39:49.434Z,0
2023-02-03T05:40:49.425Z,0
2023-02-03T05:41:49.429Z,0
2023-02-03T05:42:49.381Z,0
2023-02-03T05:43:49.338Z,0
2023-02-03T05:44:49.301Z,0
2023-02-03T05:45:49.618Z,0
2023-02-03T05:46:49.224Z,0
2023-02-03T05:47:49.226Z,0
2023-02-03T05:48:49.249Z,0
2023-02-03T05:49:49.148Z,0
2023-02-03T05:50:49.130Z,0
2023-02-03T05:51:49.065Z,0
2023-02-03T05:52:49.040Z,0
2023-02-03T05:53:49.009Z,0
2023-02-03T05:54:49.006Z,0
2023-02-03T05:55:49.089Z,0
2023-02-03T05:56:48.942Z,0
2023-02-03T05:57:48.874Z,0
2023-02-03T05:58:48.866Z,0
2023-02-03T05:59:48.834Z,0
2023-02-03T06:00:48.813Z,0
2023-02-03T06:01:48.786Z,0
2023-02-03T06:02:48.762Z,0
2023-02-03T06:03:51.969Z,0
2023-02-03T06:04:49.139Z,0
2023-02-03T06:05:48.524Z,0
2023-02-03T06:06:48.685Z,0
2023-02-03T06:07:48.606Z,0
2023-02-03T06:08:48.558Z,0
2023-02-03T06:09:48.524Z,0
2023-02-03T06:10:48.485Z,0
2023-02-03T06:11:48.460Z,0
2023-02-03T06:12:48.464Z,0
2023-02-03T06:13:48.503Z,0
2023-02-03T06:14:48.395Z,0
2023-02-03T06:15:48.366Z,0
2023-02-03T06:16:48.580Z,0
2023-02-03T06:17:48.286Z,0
2023-02-03T06:18:48.233Z,0
2023-02-03T06:19:48.219Z,0
2023-02-03T06:20:48.303Z,0
2023-02-03T06:21:48.003Z,0
2023-02-03T06:22:48.160Z,0
2023-02-03T06:23:48.091Z,0
2023-02-03T06:24:48.071Z,0
2023-02-03T06:25:48.117Z,0
2023-02-03T06:26:47.985Z,0
2023-02-03T06:27:48.204Z,0
2023-02-03T06:28:47.950Z,0
2023-02-03T06:29:48.001Z,0
2023-02-03T06:30:48.868Z,0
2023-02-03T06:31:48.588Z,0
2023-02-03T06:32:47.884Z,0
2023-02-03T06:33:47.785Z,0
2023-02-03T06:34:47.757Z,0
2023-02-03T06:35:47.739Z,0
2023-02-03T06:36:47.756Z,0
2023-02-03T06:37:47.709Z,0
2023-02-03T06:38:47.662Z,0
2023-02-03T06:39:47.742Z,0
2023-02-03T06:40:47.555Z,0
2023-02-03T06:41:47.583Z,0
2023-02-03T06:42:47.547Z,0
2023-02-03T06:43:47.460Z,0
2023-02-03T06:44:47.434Z,0
2023-02-03T06:45:47.748Z,0
2023-02-03T06:46:47.446Z,0
2023-02-03T06:47:47.333Z,0
2023-02-03T06:48:47.326Z,0
2023-02-03T06:49:47.302Z,0
2023-02-03T06:50:50.812Z,0
2023-02-03T06:51:47.219Z,0
2023-02-03T06:52:47.283Z,0
2023-02-03T06:53:47.174Z,0
2023-02-03T06:54:47.189Z,0
2023-02-03T06:55:47.016Z,0
2023-02-03T06:56:47.052Z,0
2023-02-03T06:57:47.094Z,0
2023-02-03T06:58:47.010Z,0
2023-02-03T06:59:46.972Z,0
2023-02-03T07:00:46.984Z,0
2023-02-03T07:01:47.301Z,0
2023-02-03T07:02:47.196Z,0
2023-02-03T07:03:46.895Z,0
2023-02-03T07:04:46.860Z,0
2023-02-03T07:05:46.825Z,0
2023-02-03T07:06:46.777Z,0
2023-02-03T07:07:46.773Z,0
2023-02-03T07:08:46.842Z,0
2023-02-03T07:09:46.680Z,0
2023-02-03T07:10:46.686Z,0
2023-02-03T07:11:46.618Z,0
2023-02-03T07:12:46.593Z,0
2023-02-03T07:13:46.541Z,0
2023-02-03T07:14:46.653Z,0
2023-02-03T07:15:46.924Z,0
2023-02-03T07:16:46.457Z,0
2023-02-03T07:17:46.447Z,0
2023-02-03T07:18:57.410Z,0
2023-02-03T07:19:48.374Z,0
2023-02-03T07:20:46.356Z,0
2023-02-03T07:21:46.337Z,0
2023-02-03T07:22:46.041Z,0
2023-02-03T07:23:46.223Z,0
2023-02-03T07:24:46.303Z,5
2023-02-03T07:25:46.168Z,5
2023-02-03T07:26:46.193Z,5
2023-02-03T07:27:45.906Z,0
2023-02-03T07:28:45.843Z,0
2023-02-03T07:29:46.087Z,0
2023-02-03T07:30:46.250Z,0
2023-02-03T07:31:46.780Z,0
2023-02-03T07:32:45.950Z,5
2023-02-03T07:33:45.912Z,5
2023-02-03T07:34:45.892Z,5
2023-02-03T07:35:45.845Z,5
2023-02-03T07:36:45.811Z,5
2023-02-03T07:37:45.794Z,5
2023-02-03T07:38:45.832Z,5
2023-02-03T07:39:45.741Z,5
2023-02-03T07:40:45.765Z,5
2023-02-03T07:41:45.719Z,5
2023-02-03T07:42:45.693Z,5
2023-02-03T07:43:45.665Z,5
2023-02-03T07:44:45.571Z,5
2023-02-03T07:45:45.538Z,5
2023-02-03T07:46:45.955Z,5
2023-02-03T07:47:45.612Z,5
2023-02-03T07:48:45.478Z,5
2023-02-03T07:49:45.425Z,5
2023-02-03T07:50:45.380Z,5
2023-02-03T07:51:45.168Z,5
2023-02-03T07:52:45.349Z,5
2023-02-03T07:53:45.413Z,5
2023-02-03T07:54:45.307Z,5
2023-02-03T07:55:45.264Z,10
2023-02-03T07:56:45.389Z,10
2023-02-03T07:57:45.179Z,10
2023-02-03T07:58:45.201Z,10
2023-02-03T07:59:45.129Z,10
2023-02-03T08:00:45.130Z,10
2023-02-03T08:01:45.487Z,10
2023-02-03T08:02:45.023Z,10
2023-02-03T08:03:45.023Z,10
2023-02-03T08:04:45.394Z,15
2023-02-03T08:05:44.934Z,10
2023-02-03T08:06:44.903Z,10
2023-02-03T08:07:44.894Z,10
2023-02-03T08:08:44.596Z,10
2023-02-03T08:09:44.560Z,10
2023-02-03T08:10:44.590Z,10
2023-02-03T08:11:44.734Z,10
2023-02-03T08:12:47.576Z,15
2023-02-03T08:13:44.680Z,15
2023-02-03T08:14:44.672Z,15
2023-02-03T08:15:44.628Z,15
2023-02-03T08:16:44.763Z,15
2023-02-03T08:17:44.650Z,15
2023-02-03T08:18:44.543Z,15
2023-02-03T08:19:44.496Z,15
2023-02-03T08:20:44.502Z,15
2023-02-03T08:21:44.484Z,15
2023-02-03T08:22:44.416Z,15
2023-02-03T08:23:44.115Z,20
2023-02-03T08:24:44.333Z,20
2023-02-03T08:25:44.306Z,20
2023-02-03T08:26:44.453Z,20
2023-02-03T08:27:44.442Z,20
2023-02-03T08:28:44.290Z,20
2023-02-03T08:29:44.177Z,20
2023-02-03T08:30:44.179Z,20
2023-02-03T08:31:44.937Z,25
2023-02-03T08:32:44.106Z,20
2023-02-03T08:33:44.061Z,20
2023-02-03T08:34:44.012Z,25
2023-02-03T08:35:43.990Z,25
2023-02-03T08:36:43.710Z,25
2023-02-03T08:37:43.959Z,25
2023-02-03T08:38:43.934Z,25
2023-02-03T08:39:43.646Z,25
2023-02-03T08:40:43.844Z,25
2023-02-03T08:41:43.822Z,30
2023-02-03T08:42:43.794Z,30
2023-02-03T08:43:43.819Z,30
2023-02-03T08:44:43.805Z,30
2023-02-03T08:45:43.691Z,30
2023-02-03T08:46:43.698Z,30
2023-02-03T08:47:43.655Z,25
2023-02-03T08:48:43.599Z,25
2023-02-03T08:49:43.402Z,25
2023-02-03T08:50:43.588Z,25
2023-02-03T08:51:44.922Z,25
2023-02-03T08:52:43.472Z,25
2023-02-03T08:53:43.452Z,25
2023-02-03T08:54:43.963Z,30
2023-02-03T08:55:44.149Z,30
2023-02-03T08:56:43.514Z,35
2023-02-03T08:57:44.073Z,30
2023-02-03T08:58:44.152Z,30
2023-02-03T08:59:43.308Z,30
2023-02-03T09:00:43.134Z,30
2023-02-03T09:01:43.220Z,30
2023-02-03T09:02:43.187Z,35
2023-02-03T09:03:43.166Z,35
2023-02-03T09:04:43.212Z,35
2023-02-03T09:05:43.115Z,35
2023-02-03T09:06:43.048Z,40
2023-02-03T09:07:43.028Z,35
2023-02-03T09:08:42.978Z,35
2023-02-03T09:09:42.705Z,35
2023-02-03T09:10:42.687Z,35
2023-02-03T09:11:42.895Z,40
2023-02-03T09:12:42.420Z,40
2023-02-03T09:13:43.033Z,40
2023-02-03T09:14:42.613Z,40
2023-02-03T09:15:42.533Z,45
2023-02-03T09:16:43.294Z,20
2023-02-03T09:17:42.715Z,25
2023-02-03T09:18:42.707Z,45
2023-02-03T09:19:45.177Z,45
2023-02-03T09:20:43.531Z,45
2023-02-03T09:21:55.887Z,50
2023-02-03T09:22:43.176Z,50
2023-02-03T09:23:42.548Z,45
2023-02-03T09:24:42.256Z,45
2023-02-03T09:25:45.413Z,45
2023-02-03T09:26:42.239Z,45
2023-02-03T09:27:42.622Z,45
2023-02-03T09:28:42.374Z,45
2023-02-03T09:29:42.405Z,50
2023-02-03T09:30:42.529Z,55
2023-02-03T09:31:42.412Z,50
2023-02-03T09:32:42.377Z,50
2023-02-03T09:33:42.233Z,45
2023-02-03T09:34:42.299Z,50
2023-02-03T09:35:42.195Z,50
2023-02-03T09:36:44.352Z,55
2023-02-03T09:37:42.118Z,55
2023-02-03T09:38:42.052Z,50
2023-02-03T09:39:42.017Z,60
2023-02-03T09:40:42.132Z,55
2023-02-03T09:41:41.742Z,60
2023-02-03T09:42:42.040Z,55
2023-02-03T09:43:41.969Z,55
2023-02-03T09:44:41.882Z,55
2023-02-03T09:45:42.143Z,65
2023-02-03T09:46:41.598Z,40
2023-02-03T09:47:41.834Z,35
2023-02-03T09:48:41.849Z,75
2023-02-03T09:49:41.754Z,70
2023-02-03T09:50:41.734Z,65
2023-02-03T09:51:41.661Z,60
2023-02-03T09:52:41.649Z,60
2023-02-03T09:53:41.607Z,65
2023-02-03T09:54:41.573Z,65
2023-02-03T09:55:41.574Z,75
2023-02-03T09:56:41.628Z,75
2023-02-03T09:57:41.499Z,75
2023-02-03T09:58:41.559Z,65
2023-02-03T09:59:41.670Z,70
2023-02-03T10:00:41.430Z,65
2023-02-03T10:01:41.464Z,65
2023-02-03T10:02:41.736Z,75
2023-02-03T10:03:41.311Z,75
2023-02-03T10:04:41.373Z,65
2023-02-03T10:05:41.258Z,75
2023-02-03T10:06:41.295Z,65
2023-02-03T10:07:41.189Z,50
2023-02-03T10:08:41.140Z,45
2023-02-03T10:09:41.123Z,45
2023-02-03T10:10:41.116Z,45
2023-02-03T10:11:41.070Z,50
2023-02-03T10:12:40.791Z,50
2023-02-03T10:13:42.597Z,45
2023-02-03T10:14:40.990Z,45
2023-02-03T10:15:40.733Z,55
2023-02-03T10:16:41.369Z,65
2023-02-03T10:17:40.929Z,55
2023-02-03T10:18:40.942Z,50
2023-02-03T10:19:41.196Z,45
2023-02-03T10:20:41.024Z,45
2023-02-03T10:21:40.769Z,50
2023-02-03T10:22:40.770Z,50
2023-02-03T10:23:40.713Z,55
2023-02-03T10:24:40.669Z,60
2023-02-03T10:25:40.636Z,60
2023-02-03T10:26:40.614Z,70
2023-02-03T10:27:40.716Z,75
2023-02-03T10:28:40.576Z,75
2023-02-03T10:29:40.501Z,65
2023-02-03T10:30:42.076Z,50
2023-02-03T10:31:41.338Z,50
2023-02-03T10:32:40.457Z,45
2023-02-03T10:33:40.490Z,50
2023-02-03T10:34:40.412Z,55
2023-02-03T10:35:40.159Z,60
2023-02-03T10:36:40.545Z,60
2023-02-03T10:37:40.278Z,60
2023-02-03T10:38:40.274Z,60
2023-02-03T10:39:40.002Z,55
2023-02-03T10:40:40.842Z,60
2023-02-03T10:41:40.178Z,65
2023-02-03T10:42:40.113Z,65
2023-02-03T10:43:40.090Z,65
2023-02-03T10:44:39.794Z,80
2023-02-03T10:45:40.044Z,70
2023-02-03T10:46:40.487Z,70
2023-02-03T10:47:40.119Z,75
2023-02-03T10:48:39.713Z,90
2023-02-03T10:49:41.227Z,85
2023-02-03T10:50:40.513Z,80
2023-02-03T10:51:39.856Z,80
2023-02-03T10:52:39.931Z,85
2023-02-03T10:53:39.885Z,90
2023-02-03T10:54:39.781Z,75
2023-02-03T10:55:39.518Z,70
2023-02-03T10:56:39.705Z,70
2023-02-03T10:57:39.491Z,70
2023-02-03T10:58:39.699Z,65
2023-02-03T10:59:39.641Z,75
2023-02-03T11:00:40.117Z,75
2023-02-03T11:01:39.991Z,70
2023-02-03T11:02:39.960Z,70
2023-02-03T11:03:39.490Z,70
2023-02-03T11:04:39.537Z,80
2023-02-03T11:05:39.305Z,75
2023-02-03T11:06:39.545Z,80
2023-02-03T11:07:39.139Z,75
2023-02-03T11:08:39.410Z,65
2023-02-03T11:09:39.315Z,70
2023-02-03T11:10:39.769Z,70
2023-02-03T11:11:39.271Z,70
2023-02-03T11:12:39.253Z,65
2023-02-03T11:13:39.179Z,55
2023-02-03T11:14:38.933Z,55
2023-02-03T11:15:39.460Z,55
2023-02-03T11:16:47.116Z,75
2023-02-03T11:17:38.964Z,90
2023-02-03T11:18:39.024Z,95
2023-02-03T11:19:39.005Z,100
2023-02-03T11:20:39.253Z,65
2023-02-03T11:21:38.989Z,55
2023-02-03T11:22:38.989Z,60
2023-02-03T11:23:38.986Z,55
2023-02-03T11:24:38.945Z,55
2023-02-03T11:25:38.828Z,60
2023-02-03T11:26:38.824Z,55
2023-02-03T11:27:38.856Z,65
2023-02-03T11:28:38.545Z,70
2023-02-03T11:29:38.702Z,70
2023-02-03T11:30:38.967Z,85
2023-02-03T11:31:39.219Z,80
2023-02-03T11:32:38.602Z,85
2023-02-03T11:33:38.639Z,85
2023-02-03T11:34:38.577Z,80
2023-02-03T11:35:38.551Z,85
2023-02-03T11:36:38.578Z,80
2023-02-03T11:37:38.487Z,70
2023-02-03T11:38:38.244Z,70
2023-02-03T11:39:38.414Z,100
2023-02-03T11:40:39.196Z,100
2023-02-03T11:41:38.412Z,115
2023-02-03T11:42:38.337Z,110
2023-02-03T11:43:38.050Z,110
2023-02-03T11:44:37.821Z,95
2023-02-03T11:45:38.242Z,70
2023-02-03T11:46:38.671Z,70
2023-02-03T11:47:38.216Z,70
2023-02-03T11:48:38.181Z,60
2023-02-03T11:49:38.103Z,65
2023-02-03T11:50:38.628Z,75
2023-02-03T11:51:38.058Z,60
2023-02-03T11:52:38.027Z,60
2023-02-03T11:53:56.435Z,45
2023-02-03T11:54:37.728Z,45
2023-02-03T11:55:37.941Z,50
2023-02-03T11:56:38.026Z,60
2023-02-03T11:57:37.983Z,75
2023-02-03T11:58:37.850Z,75
2023-02-03T11:59:37.794Z,65
2023-02-03T12:00:38.134Z,100
2023-02-03T12:01:37.744Z,85
2023-02-03T12:02:37.972Z,95
2023-02-03T12:03:37.696Z,95
2023-02-03T12:04:37.763Z,70
2023-02-03T12:05:37.604Z,65
2023-02-03T12:06:37.474Z,60
2023-02-03T12:07:37.621Z,55
2023-02-03T12:08:37.562Z,50
2023-02-03T12:09:37.340Z,55
2023-02-03T12:10:38.262Z,65
2023-02-03T12:11:37.423Z,55
2023-02-03T12:12:37.503Z,60
2023-02-03T12:13:36.882Z,55
2023-02-03T12:14:37.347Z,55
2023-02-03T12:15:37.080Z,40
2023-02-03T12:16:37.604Z,40
2023-02-03T12:17:37.295Z,50
2023-02-03T12:18:36.973Z,65
2023-02-03T12:19:37.193Z,55
2023-02-03T12:20:38.103Z,85
2023-02-03T12:21:37.131Z,85
2023-02-03T12:22:37.112Z,100
2023-02-03T12:23:37.058Z,125
2023-02-03T12:24:36.800Z,125
2023-02-03T12:25:37.059Z,110
2023-02-03T12:26:36.768Z,85
2023-02-03T12:27:36.981Z,75
2023-02-03T12:28:43.287Z,65
2023-02-03T12:29:39.370Z,75
2023-02-03T12:30:38.278Z,75
2023-02-03T12:31:37.418Z,100
2023-02-03T12:32:36.555Z,85
2023-02-03T12:33:36.528Z,110
2023-02-03T12:34:36.742Z,85
2023-02-03T12:35:38.973Z,95
2023-02-03T12:36:36.688Z,100
2023-02-03T12:37:36.661Z,100
2023-02-03T12:38:36.610Z,90
2023-02-03T12:39:36.613Z,120
2023-02-03T12:40:37.662Z,150
2023-02-03T12:41:36.574Z,180
2023-02-03T12:42:36.500Z,155
2023-02-03T12:43:36.470Z,155
2023-02-03T12:44:36.699Z,150
2023-02-03T12:45:36.726Z,130
2023-02-03T12:46:36.405Z,100
2023-02-03T12:47:36.119Z,105
2023-02-03T12:48:36.123Z,95
2023-02-03T12:49:36.053Z,145
2023-02-03T12:50:37.169Z,165
2023-02-03T12:51:36.219Z,165
2023-02-03T12:52:36.293Z,215
2023-02-03T12:53:38.611Z,225
2023-02-03T12:54:36.155Z,280
2023-02-03T12:55:36.128Z,220
2023-02-03T12:56:36.093Z,200
2023-02-03T12:57:36.071Z,185
2023-02-03T12:58:38.314Z,130
2023-02-03T12:59:35.759Z,160
2023-02-03T13:00:37.066Z,130
2023-02-03T13:01:36.178Z,125
2023-02-03T13:02:36.295Z,125
2023-02-03T13:03:35.872Z,125
2023-02-03T13:04:35.863Z,100
2023-02-03T13:05:35.897Z,90
2023-02-03T13:06:35.844Z,75
2023-02-03T13:07:35.742Z,85
2023-02-03T13:08:35.713Z,90
2023-02-03T13:09:35.541Z,80
2023-02-03T13:10:36.544Z,100
2023-02-03T13:11:35.658Z,80
2023-02-03T13:12:35.618Z,75
2023-02-03T13:13:35.596Z,80
2023-02-03T13:14:35.574Z,75
2023-02-03T13:15:36.757Z,70
2023-02-03T13:16:35.912Z,50
2023-02-03T13:17:35.445Z,60
2023-02-03T13:18:35.426Z,55
2023-02-03T13:19:35.145Z,55
2023-02-03T13:20:36.353Z,50
2023-02-03T13:21:35.090Z,50
2023-02-03T13:22:35.306Z,50
2023-02-03T13:23:35.260Z,45
2023-02-03T13:24:35.274Z,35
2023-02-03T13:25:35.019Z,30
2023-02-03T13:26:34.947Z,25
2023-02-03T13:27:35.164Z,20
2023-02-03T13:28:35.127Z,15
2023-02-03T13:29:35.133Z,20
2023-02-03T13:30:36.256Z,35
2023-02-03T13:31:35.595Z,40
2023-02-03T13:32:35.077Z,40
2023-02-03T13:33:34.751Z,40
2023-02-03T13:34:36.835Z,40
2023-02-03T13:35:43.769Z,35
2023-02-03T13:36:34.894Z,35
2023-02-03T13:37:34.869Z,45
2023-02-03T13:38:34.860Z,45
2023-02-03T13:39:34.827Z,45
2023-02-03T13:40:35.795Z,50
2023-02-03T13:41:34.719Z,55
2023-02-03T13:42:34.794Z,55
2023-02-03T13:43:47.169Z,50
2023-02-03T13:44:34.641Z,45
2023-02-03T13:45:34.890Z,45
2023-02-03T13:46:34.561Z,45
2023-02-03T13:47:34.526Z,45
2023-02-03T13:48:34.592Z,45
2023-02-03T13:49:34.506Z,40
2023-02-03T13:50:35.236Z,45
2023-02-03T13:51:34.414Z,40
2023-02-03T13:52:34.704Z,40
2023-02-03T13:53:34.363Z,45
2023-02-03T13:54:34.331Z,50
2023-02-03T13:55:35.373Z,50
2023-02-03T13:56:34.296Z,50
2023-02-03T13:57:33.974Z,50
2023-02-03T13:58:34.200Z,45
2023-02-03T13:59:34.260Z,45
2023-02-03T14:00:34.145Z,45
2023-02-03T14:01:34.322Z,45
2023-02-03T14:02:34.096Z,45
2023-02-03T14:03:34.435Z,55
2023-02-03T14:04:34.461Z,60
2023-02-03T14:05:34.885Z,65
2023-02-03T14:06:33.964Z,65
2023-02-03T14:07:33.715Z,65
2023-02-03T14:08:33.895Z,60
2023-02-03T14:09:33.938Z,55
2023-02-03T14:10:36.887Z,60
2023-02-03T14:11:33.817Z,60
2023-02-03T14:12:33.768Z,65
2023-02-03T14:13:33.721Z,70
2023-02-03T14:14:33.694Z,75
2023-02-03T14:15:35.068Z,80
2023-02-03T14:16:33.922Z,85
2023-02-03T14:17:33.634Z,85
2023-02-03T14:18:33.574Z,80
2023-02-03T14:19:33.059Z,85
2023-02-03T14:20:33.622Z,80
2023-02-03T14:21:33.510Z,85
2023-02-03T14:22:33.813Z,80
2023-02-03T14:23:33.437Z,80
2023-02-03T14:24:33.386Z,75
2023-02-03T14:25:34.329Z,70
2023-02-03T14:26:33.426Z,65
2023-02-03T14:27:33.302Z,60
2023-02-03T14:28:33.013Z,55
2023-02-03T14:29:33.025Z,60
2023-02-03T14:30:33.464Z,55
2023-02-03T14:31:34.254Z,55